createdAt,value
2022-08-14T00:01:10.185Z,98177.66
2022-08-14T00:03:38.564Z,98176.97
2022-08-14T00:06:13.783Z,98168.91
2022-08-14T00:08:52.140Z,98164.78
2022-08-14T00:11:19.749Z,98165.59
2022-08-14T00:13:52.764Z,98157.50
2022-08-14T00:16:40.534Z,98152.38
2022-08-14T00:19:19.258Z,98150.88
2022-08-14T00:21:50.685Z,98146.63
2022-08-14T00:24:28.323Z,98149.19
2022-08-14T00:26:57.318Z,98142.06
2022-08-14T00:29:25.546Z,98142.66
2022-08-14T00:31:56.605Z,98138.88
2022-08-14T00:34:35.505Z,98148.50
2022-08-14T00:37:05.733Z,98146.69
2022-08-14T00:39:33.275Z,98146.03
2022-08-14T00:42:01.066Z,98142.78
2022-08-14T00:44:32.492Z,98136.56
2022-08-14T00:47:10.759Z,98139.53
2022-08-14T00:49:42.837Z,98128.75
2022-08-14T00:52:18.181Z,98133.53
2022-08-14T00:54:47.758Z,98125.94
2022-08-14T00:57:14.378Z,98119.66
2022-08-14T00:59:41.382Z,98116.06
2022-08-14T01:02:09.395Z,98118.22
2022-08-14T01:04:54.025Z,98120.88
2022-08-14T01:07:23.090Z,98113.25
2022-08-14T01:09:52.404Z,98122.09
2022-08-14T01:12:27.290Z,98101.88
2022-08-14T01:14:59.573Z,98097.41
2022-08-14T01:17:49.349Z,98099.50
2022-08-14T01:20:35.773Z,98100.19
2022-08-14T01:23:16.613Z,98093.91
2022-08-14T01:25:48.452Z,98095.56
2022-08-14T01:28:47.289Z,98095.25
2022-08-14T01:31:02.024Z,98082.31
2022-08-14T01:33:29.990Z,98076.44
2022-08-14T01:36:04.717Z,98087.84
2022-08-14T01:38:37.015Z,98091.88
2022-08-14T01:41:15.019Z,98081.44
2022-08-14T01:43:56.647Z,98082.94
2022-08-14T01:46:25.446Z,98089.72
2022-08-14T01:49:02.117Z,98091.06
2022-08-14T01:51:29.708Z,98082.69
2022-08-14T01:54:00.736Z,98084.47
2022-08-14T01:56:37.218Z,98083.63
2022-08-14T01:59:21.192Z,98086.25
2022-08-14T02:01:58.985Z,98076.75
2022-08-14T02:04:54.754Z,98080.81
2022-08-14T02:07:34.303Z,98079.69
2022-08-14T02:10:06.780Z,98075.28
2022-08-14T02:12:33.930Z,98075.59
2022-08-14T02:15:01.815Z,98066.22
2022-08-14T02:17:29.286Z,98065.13
2022-08-14T02:19:58.544Z,98064.50
2022-08-14T02:22:32.707Z,98057.13
2022-08-14T02:25:01.161Z,98059.59
2022-08-14T02:28:25.514Z,98059.66
2022-08-14T02:30:15.990Z,98068.63
2022-08-14T02:32:43.364Z,98068.31
2022-08-14T02:35:18.838Z,98061.44
2022-08-14T02:37:50.021Z,98053.75
2022-08-14T02:40:32.253Z,98049.84
2022-08-14T02:43:02.483Z,98050.19
2022-08-14T02:45:38.426Z,98049.94
2022-08-14T02:49:04.487Z,98051.22
2022-08-14T02:51:01.125Z,98048.72
2022-08-14T02:53:31.623Z,98054.31
2022-08-14T02:56:03.332Z,98050.91
2022-08-14T02:58:42.301Z,98048.00
2022-08-14T03:01:10.254Z,98046.38
2022-08-14T03:03:38.922Z,98041.16
2022-08-14T03:06:08.876Z,98034.75
2022-08-14T03:08:37.825Z,98037.91
2022-08-14T03:11:07.663Z,98029.38
2022-08-14T03:13:35.869Z,98037.84
2022-08-14T03:16:09.067Z,98018.25
2022-08-14T03:18:48.313Z,98017.41
2022-08-14T03:21:21.643Z,98014.00
2022-08-14T03:23:50.989Z,98015.56
2022-08-14T03:26:30.337Z,97997.56
2022-08-14T03:29:01.013Z,97987.75
2022-08-14T03:31:28.479Z,97995.75
2022-08-14T03:33:56.814Z,97991.25
2022-08-14T03:37:38.359Z,97994.50
2022-08-14T03:39:22.614Z,97985.28
2022-08-14T03:41:55.119Z,97990.22
2022-08-14T03:45:19.169Z,97990.88
2022-08-14T03:47:09.312Z,97998.19
2022-08-14T03:49:42.278Z,97998.91
2022-08-14T03:52:17.954Z,97987.00
2022-08-14T03:54:58.821Z,97987.63
2022-08-14T03:57:25.490Z,97991.22
2022-08-14T03:59:52.181Z,97995.31
2022-08-14T04:02:32.563Z,97981.44
2022-08-14T04:05:11.894Z,97982.25
2022-08-14T04:07:49.998Z,97982.09
2022-08-14T04:10:32.401Z,97986.97
2022-08-14T04:13:03.745Z,97985.66
2022-08-14T04:15:31.822Z,97994.50
2022-08-14T04:18:18.440Z,97992.03
2022-08-14T04:20:54.916Z,97983.22
2022-08-14T04:23:29.156Z,97988.31
2022-08-14T04:26:04.912Z,98006.13
2022-08-14T04:29:08.563Z,98007.06
2022-08-14T04:31:25.089Z,98012.38
2022-08-14T04:34:17.364Z,98022.38
2022-08-14T04:37:08.198Z,98018.00
2022-08-14T04:39:56.610Z,98029.53
2022-08-14T04:42:47.631Z,98013.31
2022-08-14T04:45:20.973Z,98022.56
2022-08-14T04:48:05.858Z,98009.38
2022-08-14T04:50:43.793Z,98016.38
2022-08-14T04:53:14.374Z,98012.78
2022-08-14T04:55:43.003Z,98013.94
2022-08-14T04:58:21.747Z,98012.00
2022-08-14T05:00:58.101Z,98005.63
2022-08-14T05:03:31.854Z,98011.66
2022-08-14T05:06:01.016Z,98014.09
2022-08-14T05:08:43.737Z,98017.84
2022-08-14T05:11:16.100Z,98011.81
2022-08-14T05:16:31.765Z,98006.25
2022-08-14T05:19:18.059Z,98006.75
2022-08-14T05:22:00.149Z,98004.28
2022-08-14T05:24:31.980Z,97999.06
2022-08-14T05:26:59.360Z,97996.28
2022-08-14T05:29:26.159Z,98008.38
2022-08-14T05:31:58.067Z,97996.78
2022-08-14T05:34:31.716Z,97998.88
2022-08-14T05:37:03.039Z,98003.00
2022-08-14T05:39:31.394Z,98001.19
2022-08-14T05:41:58.941Z,97988.31
2022-08-14T05:44:30.278Z,97986.00
2022-08-14T05:46:58.668Z,97982.25
2022-08-14T05:49:33.886Z,97979.59
2022-08-14T05:52:02.469Z,97978.41
2022-08-14T05:54:35.870Z,97968.56
2022-08-14T05:57:05.477Z,97962.97
2022-08-14T05:59:39.067Z,97968.16
2022-08-14T06:02:10.111Z,97960.63
2022-08-14T06:04:38.637Z,97970.34
2022-08-14T06:07:06.266Z,97971.63
2022-08-14T06:09:35.673Z,97969.63
2022-08-14T06:12:08.746Z,97978.66
2022-08-14T06:14:36.930Z,97980.50
2022-08-14T06:17:04.616Z,97985.22
2022-08-14T06:19:31.512Z,97989.63
2022-08-14T06:21:59.481Z,97986.63
2022-08-14T06:24:30.420Z,97985.56
2022-08-14T06:27:04.517Z,97981.28
2022-08-14T06:29:34.939Z,97982.22
2022-08-14T06:32:38.434Z,97986.22
2022-08-14T06:35:02.594Z,97982.44
2022-08-14T06:37:45.123Z,97978.47
2022-08-14T06:40:26.226Z,97980.75
2022-08-14T06:43:04.257Z,97986.72
2022-08-14T06:45:36.139Z,97989.47
2022-08-14T06:48:06.136Z,97978.97
2022-08-14T06:50:33.799Z,97982.72
2022-08-14T06:53:01.019Z,97974.69
2022-08-14T06:55:29.411Z,97981.50
2022-08-14T06:57:57.667Z,97981.50
2022-08-14T07:00:30.513Z,97989.34
2022-08-14T07:03:17.482Z,97988.16
2022-08-14T07:05:55.954Z,97973.91
2022-08-14T07:08:29.776Z,97958.47
2022-08-14T07:11:04.170Z,97950.41
2022-08-14T07:13:31.569Z,97946.63
2022-08-14T07:16:00.707Z,97947.44
2022-08-14T07:18:34.124Z,97957.38
2022-08-14T07:21:02.625Z,97955.84
2022-08-14T07:23:31.302Z,97950.50
2022-08-14T07:25:59.827Z,97952.75
2022-08-14T07:28:33.161Z,97959.47
2022-08-14T07:31:05.148Z,97963.63
2022-08-14T07:33:48.626Z,97957.56
2022-08-14T07:36:30.133Z,97959.38
2022-08-14T07:39:03.531Z,97960.81
2022-08-14T07:41:39.374Z,97968.59
2022-08-14T07:44:32.739Z,97988.03
2022-08-14T07:46:57.928Z,97985.69
2022-08-14T07:49:25.485Z,97980.91
2022-08-14T07:51:52.186Z,97978.97
2022-08-14T07:54:23.511Z,97973.56
2022-08-14T07:57:06.319Z,97969.75
2022-08-14T07:59:44.282Z,97977.91
2022-08-14T08:02:17.439Z,97965.78
2022-08-14T08:04:55.211Z,97975.13
2022-08-14T08:07:31.262Z,97966.72
2022-08-14T08:10:01.151Z,97959.75
2022-08-14T08:12:30.921Z,97966.66
2022-08-14T08:15:07.747Z,97964.13
2022-08-14T08:17:38.567Z,97973.06
2022-08-14T08:20:11.397Z,97958.19
2022-08-14T08:22:40.784Z,97974.13
2022-08-14T08:25:13.910Z,97965.69
2022-08-14T08:28:08.659Z,97968.78
2022-08-14T08:30:38.224Z,97979.97
2022-08-14T08:33:16.406Z,97974.41
2022-08-14T08:35:46.839Z,97970.16
2022-08-14T08:39:17.195Z,97972.06
2022-08-14T08:41:09.629Z,97976.06
2022-08-14T08:43:39.268Z,97970.03
2022-08-14T08:46:18.584Z,97968.88
2022-08-14T08:51:23.375Z,97950.44
2022-08-14T08:54:14.969Z,97951.88
2022-08-14T08:56:52.184Z,97941.97
2022-08-14T08:59:27.086Z,97938.53
2022-08-14T09:02:04.927Z,97934.47
2022-08-14T09:04:45.347Z,97922.78
2022-08-14T09:07:19.877Z,97920.63
2022-08-14T09:09:58.716Z,97917.75
2022-08-14T09:12:32.016Z,97916.69
2022-08-14T09:15:09.034Z,97914.91
2022-08-14T09:17:38.863Z,97916.34
2022-08-14T09:20:08.513Z,97901.66
2022-08-14T09:22:42.427Z,97899.44
2022-08-14T09:25:15.911Z,97894.19
2022-08-14T09:27:42.810Z,97894.03
2022-08-14T09:30:30.783Z,97893.22
2022-08-14T09:33:12.450Z,97875.44
2022-08-14T09:36:00.732Z,97873.84
2022-08-14T09:38:33.753Z,97872.69
2022-08-14T09:41:26.261Z,97878.78
2022-08-14T09:44:30.033Z,97880.00
2022-08-14T09:46:58.443Z,97891.38
2022-08-14T09:49:40.749Z,97890.53
2022-08-14T09:52:32.953Z,97890.41
2022-08-14T09:54:57.242Z,97894.84
2022-08-14T09:57:30.920Z,97893.44
2022-08-14T09:59:58.966Z,97889.59
2022-08-14T10:02:34.422Z,97889.81
2022-08-14T10:05:13.128Z,97890.81
2022-08-14T10:07:53.891Z,97880.31
2022-08-14T10:10:40.430Z,97877.88
2022-08-14T10:13:25.348Z,97882.72
2022-08-14T10:15:59.768Z,97879.69
2022-08-14T10:18:28.383Z,97881.34
2022-08-14T10:21:00.942Z,97875.03
2022-08-14T10:23:39.398Z,97871.41
2022-08-14T10:26:08.532Z,97870.00
2022-08-14T10:29:17.956Z,97870.59
2022-08-14T10:31:43.205Z,97871.81
2022-08-14T10:34:18.473Z,97868.19
2022-08-14T10:36:49.948Z,97862.91
2022-08-14T10:39:27.417Z,97870.19
2022-08-14T10:42:16.651Z,97873.63
2022-08-14T10:44:49.063Z,97874.84
2022-08-14T10:47:41.685Z,97874.47
2022-08-14T10:50:07.798Z,97862.28
2022-08-14T10:52:43.110Z,97858.84
2022-08-14T10:55:13.990Z,97861.28
2022-08-14T10:57:49.613Z,97863.50
2022-08-14T11:00:30.228Z,97849.94
2022-08-14T11:03:13.397Z,97846.31
2022-08-14T11:05:49.645Z,97858.44
2022-08-14T11:08:34.091Z,97855.84
2022-08-14T11:11:04.035Z,97843.63
2022-08-14T11:13:31.754Z,97846.84
2022-08-14T11:16:01.327Z,97845.63
2022-08-14T11:18:32.303Z,97839.94
2022-08-14T11:21:05.178Z,97840.72
2022-08-14T11:23:38.273Z,97841.28
2022-08-14T11:26:08.096Z,97840.72
2022-08-14T11:28:46.187Z,97836.88
2022-08-14T11:31:14.802Z,97845.81
2022-08-14T11:33:42.579Z,97837.31
2022-08-14T11:36:17.283Z,97836.88
2022-08-14T11:38:46.739Z,97843.38
2022-08-14T11:41:17.184Z,97839.09
2022-08-14T11:43:55.978Z,97839.09
2022-08-14T11:46:30.193Z,97825.22
2022-08-14T11:49:06.390Z,97831.66
2022-08-14T11:51:36.214Z,97831.75
2022-08-14T11:54:20.229Z,97836.16
2022-08-14T11:57:00.374Z,97839.41
2022-08-14T11:59:32.819Z,97832.22
2022-08-14T12:02:10.087Z,97826.31
2022-08-14T12:04:56.889Z,97830.03
2022-08-14T12:07:24.848Z,97837.81
2022-08-14T12:09:56.749Z,97840.50
2022-08-14T12:12:35.845Z,97834.25
2022-08-14T12:15:05.466Z,97828.59
2022-08-14T12:17:47.617Z,97822.34
2022-08-14T12:20:29.858Z,97823.19
2022-08-14T12:23:01.246Z,97815.72
2022-08-14T12:25:29.250Z,97821.06
2022-08-14T12:28:01.180Z,97821.91
2022-08-14T12:30:39.469Z,97812.41
2022-08-14T12:33:39.262Z,97815.28
2022-08-14T12:36:21.555Z,97814.22
2022-08-14T12:38:50.886Z,97810.22
2022-08-14T12:41:24.241Z,97817.50
2022-08-14T12:43:59.518Z,97812.22
2022-08-14T12:46:46.622Z,97796.25
2022-08-14T12:49:17.096Z,97797.66
2022-08-14T12:51:56.938Z,97795.59
2022-08-14T12:54:28.477Z,97791.56
2022-08-14T12:57:08.110Z,97788.50
2022-08-14T12:59:37.200Z,97788.34
2022-08-14T13:02:22.267Z,97781.03
2022-08-14T13:04:55.672Z,97773.56
2022-08-14T13:07:24.171Z,97778.00
2022-08-14T13:09:58.368Z,97766.03
2022-08-14T13:12:32.391Z,97763.00
2022-08-14T13:15:10.665Z,97759.16
2022-08-14T13:17:48.258Z,97758.75
2022-08-14T13:20:24.507Z,97756.13
2022-08-14T13:22:53.236Z,97747.41
2022-08-14T13:25:24.378Z,97742.94
2022-08-14T13:27:55.064Z,97737.66
2022-08-14T13:30:24.884Z,97741.28
2022-08-14T13:32:53.617Z,97737.22
2022-08-14T13:35:22.550Z,97724.28
2022-08-14T13:37:52.423Z,97732.16
2022-08-14T13:40:26.386Z,97721.63
2022-08-14T13:42:56.757Z,97723.00
2022-08-14T13:45:32.624Z,97720.97
2022-08-14T13:48:19.158Z,97714.84
2022-08-14T13:51:01.554Z,97713.44
2022-08-14T13:53:33.141Z,97712.41
2022-08-14T13:56:01.486Z,97708.97
2022-08-14T13:58:34.352Z,97702.31
2022-08-14T14:01:02.671Z,97700.69
2022-08-14T14:03:35.025Z,97698.84
2022-08-14T14:06:03.153Z,97695.19
2022-08-14T14:08:43.491Z,97690.34
2022-08-14T14:11:16.033Z,97691.34
2022-08-14T14:13:45.494Z,97678.38
2022-08-14T14:16:15.501Z,97680.19
2022-08-14T14:18:56.399Z,97664.22
2022-08-14T14:21:28.724Z,97667.63
2022-08-14T14:23:56.452Z,97664.22
2022-08-14T14:26:24.629Z,97657.28
2022-08-14T14:29:00.941Z,97658.09
2022-08-14T14:31:30.422Z,97659.91
2022-08-14T14:34:12.617Z,97664.38
2022-08-14T14:36:55.437Z,97661.78
2022-08-14T14:39:29.098Z,97651.63
2022-08-14T14:41:57.525Z,97651.00
2022-08-14T14:44:33.559Z,97658.28
2022-08-14T14:47:01.076Z,97652.59
2022-08-14T14:49:41.971Z,97644.88
2022-08-14T14:52:26.999Z,97647.25
2022-08-14T14:54:58.917Z,97644.88
2022-08-14T14:57:34.763Z,97653.78
2022-08-14T15:00:06.495Z,97656.63
2022-08-14T15:02:39.179Z,97655.19
2022-08-14T15:05:08.047Z,97657.09
2022-08-14T15:07:36.882Z,97656.72
2022-08-14T15:10:06.435Z,97651.69
2022-08-14T15:12:57.591Z,97657.75
2022-08-14T15:15:24.654Z,97662.88
2022-08-14T15:17:54.787Z,97669.94
2022-08-14T15:20:29.794Z,97660.63
2022-08-14T15:23:00.929Z,97667.34
2022-08-14T15:25:36.358Z,97667.75
2022-08-14T15:28:03.660Z,97656.63
2022-08-14T15:30:32.259Z,97652.38
2022-08-14T15:32:59.834Z,97662.72
2022-08-14T15:35:29.624Z,97664.13
2022-08-14T15:37:56.467Z,97656.81
2022-08-14T15:40:23.908Z,97645.09
2022-08-14T15:42:50.894Z,97653.81
2022-08-14T15:45:19.058Z,97645.75
2022-08-14T15:47:45.836Z,97642.09
2022-08-14T15:50:13.204Z,97644.31
2022-08-14T15:52:43.013Z,97653.44
2022-08-14T15:55:14.451Z,97650.59
2022-08-14T15:58:01.338Z,97648.16
2022-08-14T16:00:50.192Z,97640.06
2022-08-14T16:03:27.893Z,97638.84
2022-08-14T16:06:11.059Z,97634.81
2022-08-14T16:08:43.038Z,97635.84
2022-08-14T16:11:10.416Z,97627.53
2022-08-14T16:13:47.625Z,97632.38
2022-08-14T16:16:50.717Z,97625.31
2022-08-14T16:22:02.098Z,97614.13
2022-08-14T16:25:01.929Z,97612.28
2022-08-14T16:27:38.903Z,97609.44
2022-08-14T16:30:20.601Z,97607.22
2022-08-14T16:32:56.923Z,97596.06
2022-08-14T16:35:43.207Z,97596.78
2022-08-14T16:38:29.440Z,97592.31
2022-08-14T16:40:23.772Z,97620.19
2022-08-14T16:41:23.348Z,97602.63
2022-08-14T16:43:53.186Z,97583.63
2022-08-14T16:46:22.278Z,97582.00
2022-08-14T16:48:55.534Z,97580.16
2022-08-14T16:51:25.325Z,97574.47
2022-08-14T16:53:52.040Z,97566.19
2022-08-14T16:56:24.165Z,97570.06
2022-08-14T16:59:15.982Z,97570.06
2022-08-14T17:01:45.395Z,97573.88
2022-08-14T17:04:14.984Z,97570.84
2022-08-14T17:06:55.034Z,97561.31
2022-08-14T17:09:27.905Z,97556.31
2022-08-14T17:11:57.146Z,97560.53
2022-08-14T17:14:25.808Z,97563.94
2022-08-14T17:16:57.664Z,97559.72
2022-08-14T17:19:25.309Z,97566.78
2022-08-14T17:21:53.227Z,97569.63
2022-08-14T17:24:55.881Z,97573.69
2022-08-14T17:27:10.377Z,97577.75
2022-08-14T17:29:44.290Z,97586.91
2022-08-14T17:32:19.309Z,97589.16
2022-08-14T17:34:55.275Z,97579.47
2022-08-14T17:37:25.262Z,97594.44
2022-08-14T17:40:02.295Z,97591.59
2022-08-14T17:42:45.518Z,97595.66
2022-08-14T17:45:43.345Z,97597.91
2022-08-14T17:49:15.033Z,97585.59
2022-08-14T17:51:24.126Z,97577.28
2022-08-14T17:54:02.617Z,97582.13
2022-08-14T17:56:33.004Z,97581.94
2022-08-14T17:59:05.343Z,97582.94
2022-08-14T18:01:37.316Z,97582.34
2022-08-14T18:04:25.147Z,97582.13
2022-08-14T18:07:06.004Z,97577.50
2022-08-14T18:09:56.652Z,97579.13
2022-08-14T18:12:31.886Z,97584.75
2022-08-14T18:15:14.397Z,97592.06
2022-08-14T18:17:52.656Z,97601.38
2022-08-14T18:21:24.423Z,97595.72
2022-08-14T18:23:13.084Z,97590.06
2022-08-14T18:25:47.209Z,97593.72
2022-08-14T18:28:16.299Z,97602.63
2022-08-14T18:30:58.294Z,97602.63
2022-08-14T18:33:26.013Z,97592.91
2022-08-14T18:35:59.146Z,97596.09
2022-08-14T18:38:45.465Z,97603.59
2022-08-14T18:41:36.778Z,97604.56
2022-08-14T18:44:10.587Z,97611.00
2022-08-14T18:47:15.035Z,97601.06
2022-08-14T18:50:00.400Z,97601.59
2022-08-14T18:52:29.650Z,97612.53
2022-08-14T18:54:59.858Z,97617.19
2022-08-14T18:57:27.095Z,97627.97
2022-08-14T19:00:43.179Z,97631.00
2022-08-14T19:03:18.054Z,97640.63
2022-08-14T19:05:49.368Z,97633.78
2022-08-14T19:08:18.842Z,97643.31
2022-08-14T19:10:54.552Z,97632.00
2022-08-14T19:13:44.784Z,97641.94
2022-08-14T19:16:18.523Z,97643.13
2022-08-14T19:19:00.087Z,97644.13
2022-08-14T19:21:30.435Z,97634.44
2022-08-14T19:24:29.782Z,97621.94
2022-08-14T19:27:19.002Z,97619.72
2022-08-14T19:29:47.832Z,97621.94
2022-08-14T19:32:43.920Z,97623.53
2022-08-14T19:35:19.190Z,97624.16
2022-08-14T19:37:52.422Z,97622.34
2022-08-14T19:40:41.918Z,97627.38
2022-08-14T19:43:22.427Z,97636.47
2022-08-14T19:46:38.452Z,97624.66
2022-08-14T19:48:56.802Z,97631.69
2022-08-14T19:51:24.524Z,97625.88
2022-08-14T19:54:13.061Z,97617.63
2022-08-14T19:56:45.042Z,97628.19
2022-08-14T19:59:18.051Z,97638.78
2022-08-14T20:01:49.720Z,97648.19
2022-08-14T20:04:46.838Z,97640.56
2022-08-14T20:07:09.331Z,97644.94
2022-08-14T20:11:05.015Z,97655.00
2022-08-14T20:12:36.022Z,97660.72
2022-08-14T20:15:18.034Z,97661.19
2022-08-14T20:17:52.392Z,97665.22
2022-08-14T20:20:32.426Z,97655.41
2022-08-14T20:23:10.773Z,97660.41
2022-08-14T20:25:45.594Z,97653.94
2022-08-14T20:28:31.877Z,97653.53
2022-08-14T20:31:13.407Z,97659.13
2022-08-14T20:33:48.628Z,97655.06
2022-08-14T20:36:16.231Z,97663.47
2022-08-14T20:38:59.326Z,97661.88
2022-08-14T20:41:26.664Z,97661.88
2022-08-14T20:44:15.640Z,97657.47
2022-08-14T20:46:47.949Z,97658.72
2022-08-14T20:49:18.811Z,97665.22
2022-08-14T20:51:59.330Z,97669.09
2022-08-14T20:54:33.392Z,97664.63
2022-08-14T20:57:17.725Z,97676.50
2022-08-14T20:59:48.799Z,97678.56
2022-08-14T21:02:34.759Z,97667.06
2022-08-14T21:05:19.329Z,97672.38
2022-08-14T21:07:50.829Z,97678.47
2022-08-14T21:10:36.010Z,97682.31
2022-08-14T21:13:26.613Z,97675.72
2022-08-14T21:15:58.053Z,97676.19
2022-08-14T21:18:31.710Z,97674.78
2022-08-14T21:21:04.774Z,97668.88
2022-08-14T21:23:55.359Z,97668.13
2022-08-14T21:26:52.248Z,97673.16
2022-08-14T21:29:14.210Z,97666.47
2022-08-14T21:31:43.026Z,97670.47
2022-08-14T21:34:27.662Z,97661.97
2022-08-14T21:37:06.427Z,97658.25
2022-08-14T21:39:36.030Z,97653.59
2022-08-14T21:42:04.695Z,97657.34
2022-08-14T21:44:43.236Z,97652.91
2022-08-14T21:47:13.036Z,97648.50
2022-08-14T21:49:40.213Z,97648.09
2022-08-14T21:52:49.890Z,97646.41
2022-08-14T21:55:09.559Z,97653.34
2022-08-14T21:57:56.237Z,97653.16
2022-08-14T22:00:36.624Z,97648.72
2022-08-14T22:03:09.954Z,97654.53
2022-08-14T22:05:41.367Z,97645.16
2022-08-14T22:08:12.465Z,97650.97
2022-08-14T22:10:42.972Z,97655.56
2022-08-14T22:13:16.719Z,97657.59
2022-08-14T22:15:49.764Z,97651.88
2022-08-14T22:18:20.643Z,97655.22
2022-08-14T22:20:53.458Z,97650.38
2022-08-14T22:23:22.936Z,97636.78
2022-08-14T22:25:51.086Z,97631.53
2022-08-14T22:28:32.800Z,97637.56
2022-08-14T22:31:03.043Z,97641.50
2022-08-14T22:33:31.047Z,97633.16
2022-08-14T22:36:00.419Z,97633.91
2022-08-14T22:38:35.406Z,97638.75
2022-08-14T22:41:25.421Z,97648.91
2022-08-14T22:43:55.487Z,97644.16
2022-08-14T22:46:23.711Z,97628.38
2022-08-14T22:48:51.251Z,97642.34
2022-08-14T22:51:21.644Z,97642.94
2022-08-14T22:53:52.405Z,97643.97
2022-08-14T22:56:22.255Z,97642.34
2022-08-14T22:58:58.191Z,97651.00
2022-08-14T23:01:32.385Z,97651.19
2022-08-14T23:04:35.649Z,97650.31
2022-08-14T23:07:21.678Z,97648.44
2022-08-14T23:09:56.210Z,97646.63
2022-08-14T23:12:28.756Z,97642.56
2022-08-14T23:14:57.091Z,97640.13
2022-08-14T23:17:23.929Z,97648.25
2022-08-14T23:19:56.580Z,97639.84
2022-08-14T23:22:26.269Z,97641.47
2022-08-14T23:24:56.722Z,97642.03
2022-08-14T23:27:31.976Z,97636.41
2022-08-14T23:30:31.975Z,97634.03
2022-08-14T23:33:02.106Z,97640.66
2022-08-14T23:35:28.832Z,97634.16
2022-08-14T23:38:01.875Z,97632.91
2022-08-14T23:40:30.269Z,97634.53
2022-08-14T23:43:02.169Z,97626.66
2022-08-14T23:45:37.088Z,97627.88
2022-08-14T23:48:10.070Z,97629.47
2022-08-14T23:50:41.796Z,97626.50
2022-08-14T23:53:28.538Z,97630.50
2022-08-14T23:56:05.803Z,97623.25
2022-08-14T23:58:32.832Z,97617.25
